createdAt,value
2022-10-04T00:01:58.390Z,14.12
2022-10-04T00:04:44.474Z,14.12
2022-10-04T00:07:13.611Z,14.12
2022-10-04T00:09:47.832Z,14.11
2022-10-04T00:12:38.139Z,14.11
2022-10-04T00:15:25.794Z,14.10
2022-10-04T00:18:21.479Z,14.08
2022-10-04T00:20:51.048Z,14.06
2022-10-04T00:23:23.348Z,14.03
2022-10-04T00:25:51.091Z,14.00
2022-10-04T00:28:20.812Z,14.00
2022-10-04T00:31:09.531Z,13.98
2022-10-04T00:33:38.627Z,13.97
2022-10-04T00:36:23.791Z,13.99
2022-10-04T00:39:08.486Z,13.97
2022-10-04T00:41:54.350Z,13.96
2022-10-04T00:44:38.985Z,13.97
2022-10-04T00:47:21.446Z,13.96
2022-10-04T00:49:51.591Z,13.95
2022-10-04T00:52:26.375Z,13.95
2022-10-04T00:54:57.969Z,13.94
2022-10-04T00:57:29.755Z,13.94
2022-10-04T00:59:59.570Z,13.93
2022-10-04T01:02:29.828Z,13.93
2022-10-04T01:05:10.636Z,13.94
2022-10-04T01:07:46.482Z,13.94
2022-10-04T01:10:25.413Z,13.94
2022-10-04T01:13:04.488Z,13.93
2022-10-04T01:15:56.638Z,13.93
2022-10-04T01:18:22.923Z,13.91
2022-10-04T01:21:03.578Z,13.92
2022-10-04T01:23:45.712Z,13.92
2022-10-04T01:26:30.329Z,13.90
2022-10-04T01:28:58.936Z,13.90
2022-10-04T01:31:29.811Z,13.88
2022-10-04T01:33:56.829Z,13.87
2022-10-04T01:36:23.656Z,13.85
2022-10-04T01:38:50.820Z,13.84
2022-10-04T01:41:25.263Z,13.84
2022-10-04T01:43:58.326Z,13.84
2022-10-04T01:46:33.426Z,13.83
2022-10-04T01:49:11.807Z,13.82
2022-10-04T01:51:49.912Z,13.82
2022-10-04T01:54:20.446Z,13.82
2022-10-04T01:56:55.874Z,13.81
2022-10-04T01:59:27.996Z,13.80
2022-10-04T02:02:05.704Z,13.80
2022-10-04T02:04:35.574Z,13.79
2022-10-04T02:07:04.203Z,13.76
2022-10-04T02:09:34.075Z,13.76
2022-10-04T02:12:01.535Z,13.74
2022-10-04T02:14:33.143Z,13.72
2022-10-04T02:17:03.119Z,13.73
2022-10-04T02:19:39.543Z,13.71
2022-10-04T02:22:09.174Z,13.68
2022-10-04T02:24:41.103Z,13.65
2022-10-04T02:27:07.566Z,13.62
2022-10-04T02:29:34.323Z,13.58
2022-10-04T02:32:21.299Z,13.55
2022-10-04T02:34:47.948Z,13.51
2022-10-04T02:37:15.268Z,13.48
2022-10-04T02:39:49.990Z,13.46
2022-10-04T02:42:40.918Z,13.42
2022-10-04T02:45:43.072Z,13.38
2022-10-04T02:48:26.506Z,13.35
2022-10-04T02:50:55.824Z,13.32
2022-10-04T02:53:34.753Z,13.28
2022-10-04T02:56:02.619Z,13.25
2022-10-04T02:58:32.472Z,13.24
2022-10-04T03:01:00.640Z,13.20
2022-10-04T03:03:37.503Z,13.20
2022-10-04T03:06:15.575Z,13.18
2022-10-04T03:08:53.063Z,13.17
2022-10-04T03:11:24.795Z,13.18
2022-10-04T03:13:55.109Z,13.19
2022-10-04T03:16:22.577Z,13.20
2022-10-04T03:18:51.442Z,13.21
2022-10-04T03:21:20.844Z,13.23
2022-10-04T03:23:50.790Z,13.24
2022-10-04T03:26:36.454Z,13.26
2022-10-04T03:29:09.544Z,13.29
2022-10-04T03:31:42.816Z,13.29
2022-10-04T03:34:23.842Z,13.31
2022-10-04T03:36:56.043Z,13.33
2022-10-04T03:39:33.529Z,13.33
2022-10-04T03:42:10.358Z,13.34
2022-10-04T03:44:37.607Z,13.33
2022-10-04T03:47:13.042Z,13.35
2022-10-04T03:49:42.159Z,13.35
2022-10-04T03:52:20.033Z,13.36
2022-10-04T03:54:47.662Z,13.35
2022-10-04T03:57:14.150Z,13.36
2022-10-04T03:59:40.694Z,13.36
2022-10-04T04:02:36.293Z,13.37
2022-10-04T04:05:12.835Z,13.37
2022-10-04T04:07:45.777Z,13.35
2022-10-04T04:10:22.678Z,13.32
2022-10-04T04:12:58.040Z,13.30
2022-10-04T04:15:29.651Z,13.28
2022-10-04T04:17:59.792Z,13.24
2022-10-04T04:20:31.540Z,13.21
2022-10-04T04:23:02.007Z,13.17
2022-10-04T04:25:32.206Z,13.12
2022-10-04T04:28:12.153Z,13.08
2022-10-04T04:30:43.953Z,13.05
2022-10-04T04:33:22.974Z,13.02
2022-10-04T04:35:55.246Z,12.98
2022-10-04T04:38:24.446Z,12.94
2022-10-04T04:40:55.609Z,12.90
2022-10-04T04:43:26.730Z,12.88
2022-10-04T04:46:08.877Z,12.84
2022-10-04T04:48:45.077Z,12.82
2022-10-04T04:51:19.496Z,12.79
2022-10-04T04:53:47.733Z,12.73
2022-10-04T04:56:19.284Z,12.72
2022-10-04T04:58:48.436Z,12.68
2022-10-04T05:01:25.584Z,12.64
2022-10-04T05:04:05.506Z,12.61
2022-10-04T05:06:34.214Z,12.57
2022-10-04T05:09:00.912Z,12.54
2022-10-04T05:11:31.643Z,12.52
2022-10-04T05:14:03.158Z,12.48
2022-10-04T05:16:52.788Z,12.45
2022-10-04T05:19:28.456Z,12.41
2022-10-04T05:21:57.657Z,12.37
2022-10-04T05:24:28.222Z,12.35
2022-10-04T05:26:58.737Z,12.28
2022-10-04T05:29:28.275Z,12.25
2022-10-04T05:31:56.137Z,12.21
2022-10-04T05:34:29.124Z,12.20
2022-10-04T05:36:58.481Z,12.18
2022-10-04T05:39:33.231Z,12.15
2022-10-04T05:42:23.269Z,12.13
2022-10-04T05:44:54.695Z,12.10
2022-10-04T05:47:27.669Z,12.09
2022-10-04T05:49:59.995Z,12.09
2022-10-04T05:52:39.954Z,12.07
2022-10-04T05:55:12.141Z,12.06
2022-10-04T05:57:44.519Z,12.06
2022-10-04T06:00:20.891Z,12.05
2022-10-04T06:02:51.105Z,12.04
2022-10-04T06:05:28.910Z,12.05
2022-10-04T06:08:00.801Z,12.06
2022-10-04T06:10:42.190Z,12.07
2022-10-04T06:13:26.015Z,12.10
2022-10-04T06:16:12.677Z,12.12
2022-10-04T06:18:46.818Z,12.17
2022-10-04T06:21:24.402Z,12.20
2022-10-04T06:23:59.471Z,12.24
2022-10-04T06:26:33.591Z,12.29
2022-10-04T06:29:10.507Z,12.36
2022-10-04T06:31:58.638Z,12.43
2022-10-04T06:34:33.723Z,12.50
2022-10-04T06:37:33.120Z,12.57
2022-10-04T06:40:21.348Z,12.65
2022-10-04T06:43:16.499Z,12.72
2022-10-04T06:45:51.351Z,12.78
2022-10-04T06:48:23.631Z,12.84
2022-10-04T06:50:56.859Z,12.89
2022-10-04T06:53:46.574Z,12.95
2022-10-04T06:56:26.352Z,13.01
2022-10-04T06:59:31.693Z,13.06
2022-10-04T07:02:12.324Z,13.12
2022-10-04T07:05:07.942Z,13.17
2022-10-04T07:07:38.852Z,13.23
2022-10-04T07:10:17.190Z,13.27
2022-10-04T07:13:09.477Z,13.31
2022-10-04T07:15:59.514Z,13.37
2022-10-04T07:18:45.241Z,13.42
2022-10-04T07:21:16.534Z,13.47
2022-10-04T07:23:45.143Z,13.52
2022-10-04T07:26:39.088Z,13.57
2022-10-04T07:29:28.265Z,13.63
2022-10-04T07:32:32.588Z,13.64
2022-10-04T07:35:14.082Z,13.68
2022-10-04T07:38:03.391Z,13.69
2022-10-04T07:40:35.942Z,13.71
2022-10-04T07:43:26.876Z,13.72
2022-10-04T07:46:03.503Z,13.75
2022-10-04T07:48:30.001Z,13.78
2022-10-04T07:51:02.685Z,13.83
2022-10-04T07:53:46.894Z,13.87
2022-10-04T07:56:21.065Z,13.91
2022-10-04T07:59:04.305Z,13.93
2022-10-04T08:01:38.462Z,13.98
2022-10-04T08:04:04.850Z,14.01
2022-10-04T08:06:37.816Z,14.07
2022-10-04T08:09:04.083Z,14.09
2022-10-04T08:11:44.424Z,14.15
2022-10-04T08:14:36.149Z,14.22
2022-10-04T08:17:15.191Z,14.26
2022-10-04T08:19:54.333Z,14.32
2022-10-04T08:22:30.224Z,14.37
2022-10-04T08:25:05.810Z,14.45
2022-10-04T08:28:07.596Z,14.51
2022-10-04T08:30:52.627Z,14.58
2022-10-04T08:34:01.157Z,14.65
2022-10-04T08:36:52.565Z,14.76
2022-10-04T08:39:52.574Z,14.86
2022-10-04T08:42:34.045Z,14.96
2022-10-04T08:45:21.031Z,15.11
2022-10-04T08:48:11.517Z,15.23
2022-10-04T08:51:01.098Z,15.37
2022-10-04T08:53:30.435Z,15.51
2022-10-04T08:56:31.479Z,15.66
2022-10-04T08:59:22.383Z,15.84
2022-10-04T09:02:25.111Z,16.00
2022-10-04T09:05:14.540Z,16.16
2022-10-04T09:08:04.248Z,16.32
2022-10-04T09:10:57.246Z,16.47
2022-10-04T09:13:38.059Z,16.59
2022-10-04T09:16:17.200Z,16.72
2022-10-04T09:19:06.171Z,16.82
2022-10-04T09:22:01.642Z,16.91
2022-10-04T09:24:53.487Z,16.99
2022-10-04T09:27:55.684Z,17.04
2022-10-04T09:30:33.053Z,17.09
2022-10-04T09:33:14.219Z,17.16
2022-10-04T09:35:54.503Z,17.19
2022-10-04T09:38:44.617Z,17.25
2022-10-04T09:41:26.818Z,17.31
2022-10-04T09:44:30.964Z,17.37
2022-10-04T09:47:14.057Z,17.42
2022-10-04T09:49:59.302Z,17.48
2022-10-04T09:52:39.883Z,17.53
2022-10-04T09:55:23.488Z,17.61
2022-10-04T09:58:22.339Z,17.68
2022-10-04T10:00:56.764Z,17.75
2022-10-04T10:03:41.848Z,17.81
2022-10-04T10:06:48.624Z,17.88
2022-10-04T10:09:51.799Z,17.95
2022-10-04T10:12:42.623Z,18.02
2022-10-04T10:15:24.895Z,18.07
2022-10-04T10:17:57.942Z,18.14
2022-10-04T10:20:48.107Z,18.20
2022-10-04T10:24:01.932Z,18.26
2022-10-04T10:26:52.594Z,18.33
2022-10-04T10:29:40.777Z,18.40
2022-10-04T10:32:19.045Z,18.47
2022-10-04T10:35:19.521Z,18.52
2022-10-04T10:37:45.785Z,18.56
2022-10-04T10:40:40.954Z,18.63
2022-10-04T10:43:53.042Z,18.71
2022-10-04T10:46:42.739Z,18.79
2022-10-04T10:49:21.988Z,18.84
2022-10-04T10:52:25.423Z,18.92
2022-10-04T10:55:13.187Z,18.97
2022-10-04T10:57:58.562Z,19.04
2022-10-04T11:00:39.948Z,19.08
2022-10-04T11:03:21.818Z,19.12
2022-10-04T11:06:01.938Z,19.18
2022-10-04T11:09:06.441Z,19.27
2022-10-04T11:12:05.568Z,19.37
2022-10-04T11:14:47.108Z,19.43
2022-10-04T11:17:33.459Z,19.49
2022-10-04T11:20:05.193Z,19.56
2022-10-04T11:22:57.447Z,19.62
2022-10-04T11:25:34.832Z,19.67
2022-10-04T11:28:39.098Z,19.71
2022-10-04T11:31:27.288Z,19.72
2022-10-04T11:34:16.376Z,19.73
2022-10-04T11:37:13.779Z,19.77
2022-10-04T11:39:42.533Z,19.82
2022-10-04T11:42:28.651Z,19.87
2022-10-04T11:45:19.645Z,19.91
2022-10-04T11:47:51.634Z,19.96
2022-10-04T11:50:29.577Z,20.03
2022-10-04T11:53:27.177Z,20.09
2022-10-04T11:56:29.633Z,20.17
2022-10-04T11:59:08.499Z,20.25
2022-10-04T12:02:16.879Z,20.32
2022-10-04T12:04:54.079Z,20.39
2022-10-04T12:07:55.118Z,20.44
2022-10-04T12:10:29.058Z,20.46
2022-10-04T12:13:04.600Z,20.51
2022-10-04T12:15:41.641Z,20.52
2022-10-04T12:18:33.039Z,20.54
2022-10-04T12:21:28.961Z,20.57
2022-10-04T12:24:23.189Z,20.60
2022-10-04T12:27:02.743Z,20.65
2022-10-04T12:30:00.594Z,20.71
2022-10-04T12:32:45.146Z,20.77
2022-10-04T12:35:14.470Z,20.80
2022-10-04T12:38:19.833Z,20.85
2022-10-04T12:41:17.771Z,20.91
2022-10-04T12:44:03.358Z,20.96
2022-10-04T12:47:00.928Z,21.01
2022-10-04T12:50:09.594Z,21.05
2022-10-04T12:52:54.327Z,21.09
2022-10-04T12:55:43.500Z,21.12
2022-10-04T12:58:30.371Z,21.14
2022-10-04T13:01:11.085Z,21.17
2022-10-04T13:04:29.132Z,21.20
2022-10-04T13:07:14.071Z,21.24
2022-10-04T13:10:26.001Z,21.27
2022-10-04T13:13:16.980Z,21.31
2022-10-04T13:19:21.100Z,21.35
2022-10-04T13:22:06.450Z,21.36
2022-10-04T13:24:56.094Z,21.37
2022-10-04T13:27:38.878Z,21.37
2022-10-04T13:30:29.486Z,21.38
2022-10-04T13:33:09.915Z,21.39
2022-10-04T13:35:59.931Z,21.42
2022-10-04T13:39:07.223Z,21.44
2022-10-04T13:41:42.705Z,21.53
2022-10-04T13:44:33.354Z,21.55
2022-10-04T13:47:20.967Z,21.55
2022-10-04T13:50:17.471Z,21.52
2022-10-04T13:53:14.874Z,21.53
2022-10-04T13:56:18.609Z,21.51
2022-10-04T13:58:44.899Z,21.51
2022-10-04T14:01:29.935Z,21.50
2022-10-04T14:04:14.708Z,21.53
2022-10-04T14:07:13.608Z,21.55
2022-10-04T14:10:13.202Z,21.57
2022-10-04T14:12:59.446Z,21.60
2022-10-04T14:15:28.472Z,21.61
2022-10-04T14:18:35.855Z,21.64
2022-10-04T14:21:15.296Z,21.69
2022-10-04T14:24:15.088Z,21.73
2022-10-04T14:27:03.117Z,21.71
2022-10-04T14:29:52.668Z,21.69
2022-10-04T14:32:39.472Z,21.68
2022-10-04T14:35:30.046Z,21.69
2022-10-04T14:38:06.460Z,21.69
2022-10-04T14:40:44.910Z,21.68
2022-10-04T14:43:49.003Z,21.67
2022-10-04T14:46:33.719Z,21.63
2022-10-04T14:49:15.712Z,21.60
2022-10-04T14:51:51.212Z,21.57
2022-10-04T14:54:26.861Z,21.56
2022-10-04T14:57:03.443Z,21.55
2022-10-04T14:59:59.061Z,21.54
2022-10-04T15:02:31.729Z,21.53
2022-10-04T15:05:29.904Z,21.51
2022-10-04T15:08:15.731Z,21.46
2022-10-04T15:10:51.991Z,21.42
2022-10-04T15:13:39.671Z,21.40
2022-10-04T15:16:27.872Z,21.35
2022-10-04T15:19:00.116Z,21.33
2022-10-04T15:21:45.390Z,21.29
2022-10-04T15:24:17.883Z,21.29
2022-10-04T15:27:14.773Z,21.26
2022-10-04T15:30:00.041Z,21.30
2022-10-04T15:32:35.875Z,21.27
2022-10-04T15:35:11.585Z,21.30
2022-10-04T15:37:44.274Z,21.27
2022-10-04T15:40:58.035Z,21.27
2022-10-04T15:43:34.234Z,21.25
2022-10-04T15:46:24.105Z,21.24
2022-10-04T15:49:15.602Z,21.21
2022-10-04T15:52:07.268Z,21.19
2022-10-04T15:55:03.279Z,21.14
2022-10-04T15:57:35.883Z,21.12
2022-10-04T16:00:10.412Z,21.09
2022-10-04T16:03:27.517Z,21.04
2022-10-04T16:06:21.552Z,21.01
2022-10-04T16:09:06.562Z,20.96
2022-10-04T16:12:02.605Z,20.92
2022-10-04T16:15:01.235Z,20.88
2022-10-04T16:18:00.138Z,20.81
2022-10-04T16:20:48.240Z,20.73
2022-10-04T16:23:34.403Z,20.66
2022-10-04T16:26:16.000Z,20.57
2022-10-04T16:29:27.986Z,20.48
2022-10-04T16:32:04.046Z,20.39
2022-10-04T16:34:37.220Z,20.29
2022-10-04T16:37:09.555Z,20.21
2022-10-04T16:39:56.663Z,20.11
2022-10-04T16:42:29.414Z,20.00
2022-10-04T16:45:19.490Z,19.90
2022-10-04T16:47:48.662Z,19.80
2022-10-04T16:51:04.334Z,19.68
2022-10-04T16:53:36.667Z,19.57
2022-10-04T16:56:23.007Z,19.46
2022-10-04T16:59:04.267Z,19.34
2022-10-04T17:01:38.371Z,19.22
2022-10-04T17:04:04.823Z,19.11
2022-10-04T17:06:51.539Z,19.02
2022-10-04T17:09:43.286Z,18.90
2022-10-04T17:12:35.497Z,18.79
2022-10-04T17:15:14.031Z,18.68
2022-10-04T17:18:12.427Z,18.57
2022-10-04T17:20:42.973Z,18.47
2022-10-04T17:23:51.371Z,18.37
2022-10-04T17:26:40.802Z,18.27
2022-10-04T17:29:40.967Z,18.19
2022-10-04T17:32:16.390Z,18.11
2022-10-04T17:35:09.803Z,18.05
2022-10-04T17:38:11.834Z,17.98
2022-10-04T17:41:19.592Z,17.91
2022-10-04T17:43:55.998Z,17.84
2022-10-04T17:46:40.929Z,17.77
2022-10-04T17:49:41.788Z,17.71
2022-10-04T17:52:41.360Z,17.63
2022-10-04T17:55:18.213Z,17.55
2022-10-04T17:58:08.064Z,17.49
2022-10-04T18:01:15.242Z,17.41
2022-10-04T18:03:47.221Z,17.36
2022-10-04T18:06:25.397Z,17.27
2022-10-04T18:09:02.969Z,17.22
2022-10-04T18:11:47.070Z,17.14
2022-10-04T18:14:42.477Z,17.07
2022-10-04T18:17:23.010Z,17.01
2022-10-04T18:20:17.423Z,16.92
2022-10-04T18:22:49.890Z,16.84
2022-10-04T18:25:26.739Z,16.77
2022-10-04T18:28:19.848Z,16.68
2022-10-04T18:30:46.144Z,16.60
2022-10-04T18:33:16.422Z,16.55
2022-10-04T18:36:14.692Z,16.49
2022-10-04T18:38:43.579Z,16.42
2022-10-04T18:41:16.149Z,16.38
2022-10-04T18:43:51.830Z,16.33
2022-10-04T18:46:22.648Z,16.30
2022-10-04T18:49:08.630Z,16.24
2022-10-04T18:51:51.084Z,16.21
2022-10-04T18:54:51.755Z,16.16
2022-10-04T18:57:56.351Z,16.11
2022-10-04T19:00:42.367Z,16.05
2022-10-04T19:03:37.160Z,16.00
2022-10-04T19:06:21.006Z,15.94
2022-10-04T19:08:59.429Z,15.90
2022-10-04T19:11:38.338Z,15.84
2022-10-04T19:14:25.488Z,15.78
2022-10-04T19:17:01.626Z,15.72
2022-10-04T19:19:46.107Z,15.68
2022-10-04T19:22:29.390Z,15.62
2022-10-04T19:25:17.750Z,15.56
2022-10-04T19:28:00.727Z,15.52
2022-10-04T19:30:54.034Z,15.47
2022-10-04T19:33:35.962Z,15.43
2022-10-04T19:36:11.796Z,15.39
2022-10-04T19:38:52.371Z,15.34
2022-10-04T19:41:56.385Z,15.30
2022-10-04T19:44:36.775Z,15.26
2022-10-04T19:47:24.983Z,15.23
2022-10-04T19:50:06.587Z,15.19
2022-10-04T19:52:46.668Z,15.14
2022-10-04T19:55:43.731Z,15.10
2022-10-04T19:58:21.387Z,15.05
2022-10-04T20:00:49.363Z,15.01
2022-10-04T20:03:16.447Z,14.98
2022-10-04T20:05:48.643Z,14.91
2022-10-04T20:08:17.137Z,14.87
2022-10-04T20:10:43.791Z,14.82
2022-10-04T20:13:21.404Z,14.78
2022-10-04T20:15:53.203Z,14.73
2022-10-04T20:18:31.733Z,14.69
2022-10-04T20:20:59.974Z,14.64
2022-10-04T20:23:41.599Z,14.62
2022-10-04T20:26:10.022Z,14.58
2022-10-04T20:28:40.562Z,14.56
2022-10-04T20:31:08.839Z,14.53
2022-10-04T20:33:36.904Z,14.52
2022-10-04T20:36:09.218Z,14.50
2022-10-04T20:38:59.305Z,14.50
2022-10-04T20:41:28.461Z,14.50
2022-10-04T20:43:56.842Z,14.50
2022-10-04T20:46:25.804Z,14.48
2022-10-04T20:48:54.261Z,14.48
2022-10-04T20:51:22.646Z,14.46
2022-10-04T20:53:52.373Z,14.46
2022-10-04T20:56:33.176Z,14.47
2022-10-04T20:59:01.714Z,14.45
2022-10-04T21:01:36.963Z,14.45
2022-10-04T21:04:29.973Z,14.45
2022-10-04T21:07:02.246Z,14.44
2022-10-04T21:09:31.019Z,14.41
2022-10-04T21:11:58.722Z,14.41
2022-10-04T21:14:27.819Z,14.40
2022-10-04T21:17:01.464Z,14.39
2022-10-04T21:19:42.996Z,14.38
2022-10-04T21:22:29.571Z,14.37
2022-10-04T21:24:57.546Z,14.35
2022-10-04T21:27:32.543Z,14.35
2022-10-04T21:30:00.790Z,14.34
2022-10-04T21:32:32.338Z,14.32
2022-10-04T21:34:58.686Z,14.31
2022-10-04T21:37:25.081Z,14.30
2022-10-04T21:39:51.471Z,14.28
2022-10-04T21:42:17.973Z,14.26
2022-10-04T21:44:44.543Z,14.24
2022-10-04T21:47:11.038Z,14.21
2022-10-04T21:49:37.398Z,14.20
2022-10-04T21:52:04.180Z,14.19
2022-10-04T21:54:30.618Z,14.17
2022-10-04T21:56:57.035Z,14.16
2022-10-04T21:59:23.811Z,14.15
2022-10-04T22:01:50.321Z,14.14
2022-10-04T22:04:16.769Z,14.13
2022-10-04T22:06:44.039Z,14.11
2022-10-04T22:09:11.012Z,14.07
2022-10-04T22:11:37.639Z,14.05
2022-10-04T22:14:04.348Z,14.01
2022-10-04T22:16:30.864Z,14.00
2022-10-04T22:18:57.254Z,13.97
2022-10-04T22:21:23.627Z,13.95
2022-10-04T22:23:49.983Z,13.92
2022-10-04T22:26:19.342Z,13.90
2022-10-04T22:28:54.846Z,13.90
2022-10-04T22:31:25.863Z,13.88
2022-10-04T22:33:53.515Z,13.85
2022-10-04T22:36:39.137Z,13.84
2022-10-04T22:39:08.563Z,13.84
2022-10-04T22:41:40.930Z,13.83
2022-10-04T22:44:23.351Z,13.83
2022-10-04T22:46:52.814Z,13.83
2022-10-04T22:49:33.980Z,13.84
2022-10-04T22:52:03.450Z,13.83
2022-10-04T22:54:34.821Z,13.84
2022-10-04T22:57:01.195Z,13.85
2022-10-04T22:59:35.817Z,13.85
2022-10-04T23:02:16.188Z,13.86
2022-10-04T23:05:16.667Z,13.87
2022-10-04T23:07:44.436Z,13.88
2022-10-04T23:10:12.723Z,13.87
2022-10-04T23:12:40.672Z,13.88
2022-10-04T23:15:07.897Z,13.88
2022-10-04T23:17:37.160Z,13.90
2022-10-04T23:20:09.698Z,13.90
2022-10-04T23:22:36.058Z,13.89
2022-10-04T23:25:02.460Z,13.90
2022-10-04T23:27:29.204Z,13.90
2022-10-04T23:30:02.767Z,13.90
2022-10-04T23:32:31.739Z,13.92
2022-10-04T23:35:00.512Z,13.91
2022-10-04T23:37:30.868Z,13.93
2022-10-04T23:39:57.253Z,13.93
2022-10-04T23:42:31.765Z,13.95
2022-10-04T23:44:59.907Z,13.93
2022-10-04T23:47:37.143Z,13.96
2022-10-04T23:50:27.594Z,13.95
2022-10-04T23:52:58.110Z,13.93
2022-10-04T23:55:28.998Z,13.94
2022-10-04T23:57:55.992Z,13.90
